createdAt,value
2017-12-12T00:00:46.744Z,983.24
2017-12-12T00:01:47.695Z,983.27
2017-12-12T00:02:46.764Z,983.32
2017-12-12T00:03:46.781Z,983.33
2017-12-12T00:04:46.804Z,983.34
2017-12-12T00:05:46.739Z,983.34
2017-12-12T00:06:46.833Z,983.38
2017-12-12T00:07:46.743Z,983.44
2017-12-12T00:08:47.604Z,983.46
2017-12-12T00:09:47.730Z,983.48
2017-12-12T00:11:12.265Z,983.56
2017-12-12T00:12:13.255Z,983.59
2017-12-12T00:13:12.401Z,983.55
2017-12-12T00:14:12.536Z,983.59
2017-12-12T00:15:36.674Z,983.60
2017-12-12T00:16:37.601Z,983.58
2017-12-12T00:17:37.492Z,983.56
2017-12-12T00:18:37.599Z,983.59
2017-12-12T00:19:37.618Z,983.63
2017-12-12T00:20:37.667Z,983.67
2017-12-12T00:21:37.690Z,983.76
2017-12-12T00:22:36.731Z,983.74
2017-12-12T00:23:36.854Z,983.77
2017-12-12T00:24:36.976Z,983.78
2017-12-12T00:25:37.092Z,983.80
2017-12-12T00:26:37.352Z,983.86
2017-12-12T00:27:37.218Z,983.89
2017-12-12T00:28:37.174Z,983.93
2017-12-12T00:29:37.146Z,983.97
2017-12-12T00:30:37.137Z,984.00
2017-12-12T00:31:37.086Z,984.02
2017-12-12T00:32:37.103Z,984.00
2017-12-12T00:33:37.261Z,984.01
2017-12-12T00:34:37.319Z,984.03
2017-12-12T00:35:37.285Z,984.06
2017-12-12T00:36:37.398Z,984.05
2017-12-12T00:37:37.514Z,984.10
2017-12-12T00:38:37.550Z,984.15
2017-12-12T00:39:37.462Z,984.20
2017-12-12T00:40:36.687Z,984.27
2017-12-12T00:41:36.694Z,984.28
2017-12-12T00:42:38.070Z,984.32
2017-12-12T00:43:37.102Z,984.34
2017-12-12T00:44:37.227Z,984.32
2017-12-12T00:45:37.386Z,984.39
2017-12-12T00:46:37.598Z,984.37
2017-12-12T00:47:37.544Z,984.41
2017-12-12T00:48:36.600Z,984.42
2017-12-12T00:49:37.516Z,984.44
2017-12-12T00:50:38.170Z,984.44
2017-12-12T00:51:37.155Z,984.48
2017-12-12T00:52:37.314Z,984.54
2017-12-12T00:53:37.874Z,984.56
2017-12-12T00:54:36.867Z,984.62
2017-12-12T00:55:36.810Z,984.63
2017-12-12T00:56:36.923Z,984.65
2017-12-12T00:57:36.950Z,984.69
2017-12-12T00:58:37.126Z,984.72
2017-12-12T00:59:37.034Z,984.76
2017-12-12T01:00:36.984Z,984.79
2017-12-12T01:01:37.122Z,984.82
2017-12-12T01:02:37.229Z,984.80
2017-12-12T01:03:37.322Z,984.80
2017-12-12T01:04:37.187Z,984.85
2017-12-12T01:05:37.192Z,984.85
2017-12-12T01:06:37.203Z,984.85
2017-12-12T01:07:37.318Z,984.92
2017-12-12T01:08:37.505Z,984.93
2017-12-12T01:09:37.585Z,984.96
2017-12-12T01:10:37.522Z,984.98
2017-12-12T01:11:37.485Z,984.96
2017-12-12T01:12:37.377Z,985.01
2017-12-12T01:13:37.665Z,985.02
2017-12-12T01:14:37.660Z,985.07
2017-12-12T01:15:36.845Z,985.09
2017-12-12T01:16:36.698Z,985.17
2017-12-12T01:17:37.525Z,985.18
2017-12-12T01:18:36.699Z,985.20
2017-12-12T01:19:36.706Z,985.25
2017-12-12T01:20:36.758Z,985.28
2017-12-12T01:21:36.964Z,985.33
2017-12-12T01:22:36.894Z,985.44
2017-12-12T01:23:36.806Z,985.42
2017-12-12T01:24:36.812Z,985.49
2017-12-12T01:25:36.884Z,985.55
2017-12-12T01:26:36.966Z,985.58
2017-12-12T01:27:37.022Z,985.59
2017-12-12T01:28:36.889Z,985.59
2017-12-12T01:29:36.909Z,985.67
2017-12-12T01:30:36.904Z,985.69
2017-12-12T01:32:02.783Z,985.77
2017-12-12T01:33:03.674Z,985.77
2017-12-12T01:34:03.588Z,985.82
2017-12-12T01:35:03.707Z,985.88
2017-12-12T01:36:03.704Z,985.91
2017-12-12T01:37:03.658Z,985.91
2017-12-12T01:38:03.606Z,985.93
2017-12-12T01:39:03.617Z,985.94
2017-12-12T01:40:03.660Z,985.99
2017-12-12T01:41:03.710Z,985.97
2017-12-12T01:42:03.702Z,985.99
2017-12-12T01:43:03.629Z,986.04
2017-12-12T01:44:03.816Z,986.04
2017-12-12T01:45:02.799Z,986.09
2017-12-12T01:46:02.919Z,986.16
2017-12-12T01:47:02.794Z,986.21
2017-12-12T01:48:03.723Z,986.25
2017-12-12T01:49:02.882Z,986.22
2017-12-12T01:50:03.068Z,986.24
2017-12-12T01:51:02.887Z,986.27
2017-12-12T01:52:02.842Z,986.30
2017-12-12T01:53:26.629Z,986.26
2017-12-12T01:54:27.546Z,986.33
2017-12-12T01:55:27.531Z,986.37
2017-12-12T01:56:27.451Z,986.37
2017-12-12T01:57:27.462Z,986.43
2017-12-12T01:58:27.600Z,986.46
2017-12-12T01:59:27.542Z,986.48
2017-12-12T02:00:27.479Z,986.54
2017-12-12T02:01:26.693Z,986.50
2017-12-12T02:02:26.733Z,986.56
2017-12-12T02:03:26.898Z,986.63
2017-12-12T02:04:26.826Z,986.63
2017-12-12T02:05:51.577Z,986.77
2017-12-12T02:06:51.811Z,986.76
2017-12-12T02:07:51.773Z,986.85
2017-12-12T02:08:51.901Z,986.86
2017-12-12T02:10:16.770Z,986.98
2017-12-12T02:11:16.693Z,987.00
2017-12-12T02:12:17.738Z,986.98
2017-12-12T02:13:17.748Z,987.07
2017-12-12T02:14:17.744Z,987.06
2017-12-12T02:15:18.805Z,987.12
2017-12-12T02:16:16.963Z,987.16
2017-12-12T02:17:16.951Z,987.24
2017-12-12T02:18:16.936Z,987.27
2017-12-12T02:19:16.899Z,987.37
2017-12-12T02:20:16.857Z,987.39
2017-12-12T02:21:17.710Z,987.43
2017-12-12T02:22:17.561Z,987.46
2017-12-12T02:23:17.721Z,987.48
2017-12-12T02:24:42.636Z,987.53
2017-12-12T02:25:42.606Z,987.56
2017-12-12T02:26:42.626Z,987.55
2017-12-12T02:27:42.713Z,987.63
2017-12-12T02:28:42.876Z,987.70
2017-12-12T02:29:42.807Z,987.67
2017-12-12T02:30:43.854Z,987.74
2017-12-12T02:31:42.924Z,987.79
2017-12-12T02:32:43.008Z,987.83
2017-12-12T02:33:42.983Z,987.89
2017-12-12T02:34:42.849Z,987.86
2017-12-12T02:35:42.885Z,987.91
2017-12-12T02:36:42.873Z,987.93
2017-12-12T02:37:42.765Z,987.98
2017-12-12T02:38:42.861Z,988.02
2017-12-12T02:39:42.808Z,988.03
2017-12-12T02:40:42.970Z,988.01
2017-12-12T02:41:43.626Z,988.04
2017-12-12T02:42:43.518Z,988.06
2017-12-12T02:43:42.626Z,988.11
2017-12-12T02:44:42.597Z,988.17
2017-12-12T02:45:43.462Z,988.15
2017-12-12T02:46:43.498Z,988.18
2017-12-12T02:47:43.506Z,988.18
2017-12-12T02:48:42.716Z,988.22
2017-12-12T02:49:42.601Z,988.24
2017-12-12T02:50:43.504Z,988.23
2017-12-12T02:51:43.495Z,988.24
2017-12-12T02:52:42.571Z,988.24
2017-12-12T02:53:42.953Z,988.29
2017-12-12T02:54:42.877Z,988.25
2017-12-12T02:55:43.016Z,988.32
2017-12-12T02:56:42.917Z,988.36
2017-12-12T02:57:42.818Z,988.44
2017-12-12T02:58:42.957Z,988.46
2017-12-12T02:59:43.003Z,988.48
2017-12-12T03:00:43.080Z,988.54
2017-12-12T03:01:43.183Z,988.60
2017-12-12T03:02:43.213Z,988.59
2017-12-12T03:03:43.386Z,988.63
2017-12-12T03:04:43.300Z,988.64
2017-12-12T03:05:43.333Z,988.72
2017-12-12T03:06:43.231Z,988.71
2017-12-12T03:07:43.424Z,988.80
2017-12-12T03:08:42.631Z,988.81
2017-12-12T03:09:43.653Z,988.90
2017-12-12T03:10:42.568Z,988.96
2017-12-12T03:11:42.551Z,988.92
2017-12-12T03:12:43.629Z,988.98
2017-12-12T03:13:42.622Z,988.94
2017-12-12T03:14:42.713Z,988.98
2017-12-12T03:15:42.800Z,989.04
2017-12-12T03:16:42.854Z,989.08
2017-12-12T03:19:25.455Z,989.21
2017-12-12T03:20:26.342Z,989.24
2017-12-12T03:21:26.570Z,989.30
2017-12-12T03:22:25.486Z,989.25
2017-12-12T03:23:50.003Z,989.30
2017-12-12T03:24:50.007Z,989.30
2017-12-12T03:25:50.852Z,989.32
2017-12-12T03:26:51.192Z,989.32
2017-12-12T03:27:50.182Z,989.45
2017-12-12T03:28:50.160Z,989.49
2017-12-12T03:29:50.116Z,989.58
2017-12-12T03:30:50.086Z,989.52
2017-12-12T03:31:50.236Z,989.59
2017-12-12T03:32:50.086Z,989.66
2017-12-12T03:33:50.091Z,989.67
2017-12-12T03:34:50.967Z,989.75
2017-12-12T03:35:51.542Z,989.74
2017-12-12T03:36:50.675Z,989.80
2017-12-12T03:37:50.592Z,989.80
2017-12-12T03:38:50.574Z,989.84
2017-12-12T03:39:50.399Z,989.91
2017-12-12T03:40:50.253Z,989.96
2017-12-12T03:41:50.205Z,989.98
2017-12-12T03:42:50.094Z,990.03
2017-12-12T03:43:50.001Z,990.00
2017-12-12T03:44:50.918Z,990.00
2017-12-12T03:45:50.948Z,990.10
2017-12-12T03:46:50.929Z,990.11
2017-12-12T03:47:50.846Z,990.19
2017-12-12T03:48:50.930Z,990.26
2017-12-12T03:49:50.809Z,990.29
2017-12-12T03:50:50.660Z,990.39
2017-12-12T03:51:50.904Z,990.45
2017-12-12T03:52:51.519Z,990.43
2017-12-12T03:53:50.592Z,990.47
2017-12-12T03:54:50.458Z,990.48
2017-12-12T03:55:50.401Z,990.52
2017-12-12T03:56:50.347Z,990.59
2017-12-12T03:57:50.440Z,990.61
2017-12-12T03:58:50.390Z,990.65
2017-12-12T03:59:50.170Z,990.73
2017-12-12T04:00:50.075Z,990.76
2017-12-12T04:01:50.181Z,990.77
2017-12-12T04:02:50.063Z,990.81
2017-12-12T04:03:51.012Z,990.89
2017-12-12T04:04:51.022Z,990.91
2017-12-12T04:05:50.012Z,991.01
2017-12-12T04:06:51.273Z,990.98
2017-12-12T04:07:50.365Z,990.99
2017-12-12T04:08:50.299Z,991.06
2017-12-12T04:09:50.203Z,991.10
2017-12-12T04:10:50.165Z,991.13
2017-12-12T04:11:50.153Z,991.17
2017-12-12T04:12:50.211Z,991.23
2017-12-12T04:13:50.062Z,991.25
2017-12-12T04:14:50.146Z,991.34
2017-12-12T04:15:50.307Z,991.35
2017-12-12T04:16:50.227Z,991.39
2017-12-12T04:17:50.472Z,991.46
2017-12-12T04:18:50.453Z,991.51
2017-12-12T04:19:50.463Z,991.53
2017-12-12T04:21:19.153Z,991.64
2017-12-12T04:22:44.894Z,991.67
2017-12-12T04:23:46.304Z,991.72
2017-12-12T04:24:45.171Z,991.77
2017-12-12T04:25:45.111Z,991.83
2017-12-12T04:26:45.144Z,991.92
2017-12-12T04:27:45.225Z,991.92
2017-12-12T04:28:45.293Z,991.99
2017-12-12T04:29:45.634Z,992.05
2017-12-12T04:30:45.704Z,992.07
2017-12-12T04:31:45.817Z,992.08
2017-12-12T04:32:45.689Z,992.17
2017-12-12T04:33:45.777Z,992.20
2017-12-12T04:34:45.819Z,992.30
2017-12-12T04:35:45.867Z,992.30
2017-12-12T04:36:46.278Z,992.32
2017-12-12T04:37:45.299Z,992.32
2017-12-12T04:38:45.236Z,992.38
2017-12-12T04:39:45.378Z,992.35
2017-12-12T04:40:45.499Z,992.40
2017-12-12T04:41:45.350Z,992.42
2017-12-12T04:42:45.156Z,992.44
2017-12-12T04:43:45.257Z,992.51
2017-12-12T04:44:45.458Z,992.55
2017-12-12T04:45:45.378Z,992.61
2017-12-12T04:46:45.274Z,992.63
2017-12-12T04:47:45.198Z,992.59
2017-12-12T04:48:45.237Z,992.70
2017-12-12T04:49:45.202Z,992.74
2017-12-12T04:51:09.834Z,992.75
2017-12-12T04:52:09.860Z,992.82
2017-12-12T04:53:09.954Z,992.87
2017-12-12T04:54:10.092Z,992.91
2017-12-12T04:55:10.125Z,992.96
2017-12-12T04:56:10.091Z,993.01
2017-12-12T04:57:10.223Z,993.06
2017-12-12T04:58:10.297Z,993.07
2017-12-12T04:59:10.227Z,993.07
2017-12-12T05:00:10.372Z,993.13
2017-12-12T05:01:10.546Z,993.17
2017-12-12T05:02:10.527Z,993.20
2017-12-12T05:03:10.461Z,993.25
2017-12-12T05:04:10.366Z,993.30
2017-12-12T05:05:10.488Z,993.37
2017-12-12T05:06:10.453Z,993.48
2017-12-12T05:07:10.691Z,993.48
2017-12-12T05:08:09.774Z,993.54
2017-12-12T05:09:09.841Z,993.60
2017-12-12T05:10:35.103Z,993.62
2017-12-12T05:11:35.244Z,993.69
2017-12-12T05:12:35.466Z,993.69
2017-12-12T05:13:35.585Z,993.69
2017-12-12T05:14:35.867Z,993.76
2017-12-12T05:15:36.070Z,993.78
2017-12-12T05:16:35.312Z,993.90
2017-12-12T05:17:35.521Z,993.89
2017-12-12T05:18:35.499Z,993.96
2017-12-12T05:19:35.727Z,993.93
2017-12-12T05:20:35.827Z,994.02
2017-12-12T05:21:35.945Z,994.06
2017-12-12T05:22:35.207Z,994.08
2017-12-12T05:23:35.163Z,994.06
2017-12-12T05:24:35.116Z,994.07
2017-12-12T05:25:58.974Z,994.12
2017-12-12T05:26:59.934Z,994.15
2017-12-12T05:27:59.055Z,994.25
2017-12-12T05:28:59.075Z,994.28
2017-12-12T05:29:59.108Z,994.38
2017-12-12T05:30:59.142Z,994.39
2017-12-12T05:31:59.097Z,994.46
2017-12-12T05:32:58.998Z,994.49
2017-12-12T05:33:59.876Z,994.55
2017-12-12T05:34:59.704Z,994.55
2017-12-12T05:35:59.505Z,994.63
2017-12-12T05:36:59.523Z,994.70
2017-12-12T05:37:59.524Z,994.68
2017-12-12T05:38:59.438Z,994.72
2017-12-12T05:39:59.342Z,994.75
2017-12-12T05:40:59.389Z,994.77
2017-12-12T05:41:59.545Z,994.81
2017-12-12T05:42:59.408Z,994.92
2017-12-12T05:43:59.284Z,994.88
2017-12-12T05:44:59.342Z,994.90
2017-12-12T05:45:59.332Z,994.97
2017-12-12T05:46:59.246Z,994.97
2017-12-12T05:47:59.198Z,994.99
2017-12-12T05:48:59.231Z,995.07
2017-12-12T05:49:59.238Z,995.04
2017-12-12T05:50:59.255Z,995.07
2017-12-12T05:51:59.441Z,995.11
2017-12-12T05:52:59.432Z,995.13
2017-12-12T05:53:59.404Z,995.14
2017-12-12T05:54:59.416Z,995.23
2017-12-12T05:55:59.342Z,995.25
2017-12-12T05:56:59.346Z,995.31
2017-12-12T05:57:59.429Z,995.29
2017-12-12T05:58:59.335Z,995.30
2017-12-12T05:59:59.200Z,995.30
2017-12-12T06:00:59.233Z,995.36
2017-12-12T06:01:59.340Z,995.36
2017-12-12T06:02:59.341Z,995.38
2017-12-12T06:03:59.176Z,995.42
2017-12-12T06:04:59.275Z,995.44
2017-12-12T06:05:59.387Z,995.47
2017-12-12T06:06:59.279Z,995.53
2017-12-12T06:07:59.270Z,995.54
2017-12-12T06:08:59.191Z,995.62
2017-12-12T06:09:59.614Z,995.57
2017-12-12T06:10:59.664Z,995.65
2017-12-12T06:11:59.706Z,995.64
2017-12-12T06:12:59.627Z,995.71
2017-12-12T06:13:59.771Z,995.76
2017-12-12T06:14:59.830Z,995.80
2017-12-12T06:15:59.757Z,995.83
2017-12-12T06:16:59.818Z,995.84
2017-12-12T06:17:59.764Z,995.85
2017-12-12T06:18:59.820Z,995.88
2017-12-12T06:19:59.760Z,995.96
2017-12-12T06:20:59.936Z,995.90
2017-12-12T06:21:59.079Z,995.87
2017-12-12T06:22:59.278Z,995.96
2017-12-12T06:24:23.439Z,996.01
2017-12-12T06:25:23.498Z,996.02
2017-12-12T06:26:23.568Z,996.10
2017-12-12T06:27:23.689Z,996.05
2017-12-12T06:28:23.749Z,996.13
2017-12-12T06:30:13.588Z,996.23
2017-12-12T06:31:14.561Z,996.24
2017-12-12T06:32:13.701Z,996.23
2017-12-12T06:33:38.528Z,996.32
2017-12-12T06:34:38.657Z,996.36
2017-12-12T06:35:38.641Z,996.43
2017-12-12T06:36:38.746Z,996.37
2017-12-12T06:37:38.982Z,996.42
2017-12-12T06:38:38.926Z,996.44
2017-12-12T06:40:02.546Z,996.44
2017-12-12T06:41:03.609Z,996.46
2017-12-12T06:42:02.765Z,996.44
2017-12-12T06:43:02.883Z,996.52
2017-12-12T06:44:02.903Z,996.64
2017-12-12T06:45:02.924Z,996.59
2017-12-12T06:46:02.956Z,996.62
2017-12-12T06:47:02.910Z,996.64
2017-12-12T06:48:02.897Z,996.69
2017-12-12T06:49:02.799Z,996.73
2017-12-12T06:50:02.830Z,996.77
2017-12-12T06:51:02.867Z,996.80
2017-12-12T06:52:03.095Z,996.89
2017-12-12T06:53:03.368Z,996.89
2017-12-12T06:54:03.294Z,996.85
2017-12-12T06:55:03.242Z,996.88
2017-12-12T06:56:03.044Z,996.94
2017-12-12T06:57:03.073Z,996.95
2017-12-12T06:58:26.677Z,996.99
2017-12-12T06:59:27.552Z,996.97
2017-12-12T07:00:27.499Z,996.98
2017-12-12T07:01:26.658Z,997.01
2017-12-12T07:02:27.498Z,996.99
2017-12-12T07:03:27.491Z,997.11
2017-12-12T07:04:27.453Z,997.11
2017-12-12T07:05:27.271Z,997.10
2017-12-12T07:06:27.391Z,997.09
2017-12-12T07:07:27.475Z,997.11
2017-12-12T07:08:27.597Z,997.16
2017-12-12T07:09:26.708Z,997.21
2017-12-12T07:10:26.750Z,997.21
2017-12-12T07:11:27.656Z,997.30
2017-12-12T07:12:27.699Z,997.32
2017-12-12T07:13:26.740Z,997.35
2017-12-12T07:14:26.898Z,997.42
2017-12-12T07:15:26.887Z,997.45
2017-12-12T07:16:27.101Z,997.49
2017-12-12T07:17:27.176Z,997.50
2017-12-12T07:18:27.265Z,997.58
2017-12-12T07:19:27.503Z,997.59
2017-12-12T07:20:27.536Z,997.64
2017-12-12T07:21:51.790Z,997.66
2017-12-12T07:22:51.873Z,997.65
2017-12-12T07:23:51.983Z,997.70
2017-12-12T07:24:52.247Z,997.70
2017-12-12T07:25:51.386Z,997.71
2017-12-12T07:26:51.528Z,997.83
2017-12-12T07:27:51.701Z,997.84
2017-12-12T07:28:51.875Z,997.87
2017-12-12T07:29:51.921Z,997.86
2017-12-12T07:30:52.117Z,997.92
2017-12-12T07:31:52.157Z,997.96
2017-12-12T07:32:52.246Z,997.92
2017-12-12T07:33:52.254Z,997.93
2017-12-12T07:34:51.309Z,998.02
2017-12-12T07:35:51.635Z,998.03
2017-12-12T07:36:51.811Z,998.08
2017-12-12T07:37:51.987Z,998.08
2017-12-12T07:38:52.078Z,998.11
2017-12-12T07:39:52.098Z,998.14
2017-12-12T07:40:52.156Z,998.13
2017-12-12T07:41:52.150Z,998.21
2017-12-12T07:42:52.238Z,998.27
2017-12-12T07:43:52.212Z,998.23
2017-12-12T07:44:52.235Z,998.25
2017-12-12T07:45:51.571Z,998.30
2017-12-12T07:46:51.597Z,998.27
2017-12-12T07:47:51.809Z,998.33
2017-12-12T07:48:52.011Z,998.34
2017-12-12T07:49:52.088Z,998.39
2017-12-12T07:50:52.320Z,998.39
2017-12-12T07:51:52.419Z,998.41
2017-12-12T07:52:51.608Z,998.47
2017-12-12T07:53:51.577Z,998.49
2017-12-12T07:54:51.859Z,998.47
2017-12-12T07:55:51.985Z,998.55
2017-12-12T07:56:52.357Z,998.57
2017-12-12T07:57:51.513Z,998.60
2017-12-12T07:58:51.695Z,998.59
2017-12-12T07:59:51.911Z,998.63
2017-12-12T08:00:52.209Z,998.63
2017-12-12T08:01:51.429Z,998.62
2017-12-12T08:02:51.551Z,998.64
2017-12-12T08:03:51.892Z,998.67
2017-12-12T08:04:52.049Z,998.68
2017-12-12T08:05:52.312Z,998.71
2017-12-12T08:06:51.685Z,998.69
2017-12-12T08:07:51.895Z,998.73
2017-12-12T08:08:51.972Z,998.72
2017-12-12T08:09:52.202Z,998.77
2017-12-12T08:10:52.332Z,998.76
2017-12-12T08:12:41.773Z,998.84
2017-12-12T08:13:42.026Z,998.91
2017-12-12T08:14:42.214Z,998.91
2017-12-12T08:15:42.470Z,998.89
2017-12-12T08:16:42.643Z,998.97
2017-12-12T08:17:41.947Z,999.02
2017-12-12T08:18:42.239Z,999.08
2017-12-12T08:20:07.277Z,999.07
2017-12-12T08:21:07.479Z,999.16
2017-12-12T08:22:07.591Z,999.14
2017-12-12T08:23:07.861Z,999.18
2017-12-12T08:24:08.005Z,999.20
2017-12-12T08:25:08.157Z,999.24
2017-12-12T08:26:07.409Z,999.26
2017-12-12T08:27:07.678Z,999.29
2017-12-12T08:28:08.108Z,999.31
2017-12-12T08:29:07.395Z,999.32
2017-12-12T08:30:07.511Z,999.35
2017-12-12T08:31:07.915Z,999.44
2017-12-12T08:32:08.345Z,999.42
2017-12-12T08:33:07.574Z,999.51
2017-12-12T08:34:07.940Z,999.52
2017-12-12T08:35:32.540Z,999.58
2017-12-12T08:36:32.885Z,999.62
2017-12-12T08:37:33.279Z,999.61
2017-12-12T08:38:32.682Z,999.65
2017-12-12T08:39:33.086Z,999.70
2017-12-12T08:40:33.504Z,999.66
2017-12-12T08:41:32.841Z,999.73
2017-12-12T08:42:33.098Z,999.76
2017-12-12T08:43:33.444Z,999.77
2017-12-12T08:44:32.773Z,999.85
2017-12-12T08:45:33.123Z,999.87
2017-12-12T08:46:33.325Z,999.90
2017-12-12T08:47:32.500Z,999.87
2017-12-12T08:48:32.833Z,999.93
2017-12-12T08:49:33.257Z,999.97
2017-12-12T08:50:33.437Z,1000.02
2017-12-12T08:51:32.897Z,1000.08
2017-12-12T08:52:33.224Z,1000.10
2017-12-12T08:53:32.671Z,1000.16
2017-12-12T08:54:33.132Z,1000.21
2017-12-12T08:55:33.469Z,1000.24
2017-12-12T08:56:32.929Z,1000.17
2017-12-12T08:57:33.548Z,1000.23
2017-12-12T08:58:35.423Z,1000.24
2017-12-12T08:59:32.681Z,1000.27
2017-12-12T09:00:34.172Z,1000.23
2017-12-12T09:01:33.423Z,1000.28
2017-12-12T09:02:32.791Z,1000.27
2017-12-12T09:03:33.262Z,1000.27
2017-12-12T09:04:33.409Z,1000.36
2017-12-12T09:05:32.792Z,1000.31
2017-12-12T09:06:33.387Z,1000.39
2017-12-12T09:07:32.655Z,1000.43
2017-12-12T09:08:33.041Z,1000.48
2017-12-12T09:09:33.368Z,1000.51
2017-12-12T09:10:32.834Z,1000.54
2017-12-12T09:11:33.597Z,1000.57
2017-12-12T09:12:32.845Z,1000.58
2017-12-12T09:13:33.168Z,1000.56
2017-12-12T09:14:58.044Z,1000.60
2017-12-12T09:15:59.187Z,1000.60
2017-12-12T09:16:58.689Z,1000.66
2017-12-12T09:17:58.971Z,1000.69
2017-12-12T09:18:58.406Z,1000.72
2017-12-12T09:19:58.873Z,1000.71
2017-12-12T09:20:58.307Z,1000.72
2017-12-12T09:21:58.750Z,1000.78
2017-12-12T09:22:58.066Z,1000.83
2017-12-12T09:23:58.348Z,1000.89
2017-12-12T09:24:58.793Z,1000.96
2017-12-12T09:25:58.247Z,1000.93
2017-12-12T09:26:58.571Z,1000.96
2017-12-12T09:27:58.764Z,1001.02
2017-12-12T09:28:57.978Z,1001.06
2017-12-12T09:29:58.225Z,1001.01
2017-12-12T09:30:58.785Z,1001.04
2017-12-12T09:31:58.108Z,1001.09
2017-12-12T09:32:58.473Z,1001.09
2017-12-12T09:33:59.073Z,1001.12
2017-12-12T09:34:58.487Z,1001.15
2017-12-12T09:35:58.750Z,1001.12
2017-12-12T09:36:58.196Z,1001.23
2017-12-12T09:37:58.701Z,1001.26
2017-12-12T09:38:58.180Z,1001.31
2017-12-12T09:39:58.530Z,1001.35
2017-12-12T09:40:58.883Z,1001.35
2017-12-12T09:41:58.397Z,1001.38
2017-12-12T09:42:58.625Z,1001.35
2017-12-12T09:43:58.854Z,1001.45
2017-12-12T09:44:58.246Z,1001.42
2017-12-12T09:45:58.621Z,1001.49
2017-12-12T09:46:58.919Z,1001.46
2017-12-12T09:47:58.325Z,1001.50
2017-12-12T09:48:58.834Z,1001.53
2017-12-12T09:49:58.329Z,1001.54
2017-12-12T09:50:58.992Z,1001.64
2017-12-12T09:51:59.196Z,1001.58
2017-12-12T09:52:58.572Z,1001.68
2017-12-12T09:53:58.017Z,1001.66
2017-12-12T09:54:58.662Z,1001.70
2017-12-12T09:55:58.068Z,1001.74
2017-12-12T09:56:58.354Z,1001.71
2017-12-12T09:57:58.530Z,1001.78
2017-12-12T09:58:58.716Z,1001.83
2017-12-12T09:59:58.023Z,1001.86
2017-12-12T10:00:58.324Z,1001.85
2017-12-12T10:01:58.583Z,1001.87
2017-12-12T10:02:58.845Z,1001.89
2017-12-12T10:03:58.132Z,1001.88
2017-12-12T10:04:58.356Z,1001.87
2017-12-12T10:05:58.650Z,1001.84
2017-12-12T10:06:57.967Z,1001.91
2017-12-12T10:07:58.312Z,1001.89
2017-12-12T10:09:23.380Z,1001.97
2017-12-12T10:10:48.521Z,1002.03
2017-12-12T10:11:48.756Z,1002.07
2017-12-12T10:12:48.878Z,1002.14
2017-12-12T10:13:49.172Z,1002.15
2017-12-12T10:14:49.438Z,1002.20
2017-12-12T10:15:48.662Z,1002.17
2017-12-12T10:16:48.894Z,1002.20
2017-12-12T10:17:49.682Z,1002.20
2017-12-12T10:18:49.431Z,1002.19
2017-12-12T10:19:49.084Z,1002.18
2017-12-12T10:20:49.402Z,1002.21
2017-12-12T10:22:15.771Z,1002.23
2017-12-12T10:23:16.095Z,1002.23
2017-12-12T10:24:41.743Z,1002.32
2017-12-12T10:25:42.692Z,1002.33
2017-12-12T10:26:41.879Z,1002.29
2017-12-12T10:27:42.101Z,1002.32
2017-12-12T10:28:42.214Z,1002.34
2017-12-12T10:29:42.570Z,1002.39
2017-12-12T10:30:41.844Z,1002.39
2017-12-12T10:31:42.072Z,1002.47
2017-12-12T10:32:42.316Z,1002.45
2017-12-12T10:33:42.608Z,1002.47
2017-12-12T10:34:41.829Z,1002.48
2017-12-12T10:35:42.027Z,1002.55
2017-12-12T10:36:42.233Z,1002.55
2017-12-12T10:37:42.538Z,1002.52
2017-12-12T10:38:41.804Z,1002.58
2017-12-12T10:39:41.999Z,1002.60
2017-12-12T10:40:42.428Z,1002.62
2017-12-12T10:41:42.829Z,1002.67
2017-12-12T10:42:41.921Z,1002.66
2017-12-12T10:43:42.206Z,1002.76
2017-12-12T10:44:42.533Z,1002.70
2017-12-12T10:45:41.849Z,1002.75
2017-12-12T10:46:41.908Z,1002.77
2017-12-12T10:47:42.286Z,1002.77
2017-12-12T10:48:42.316Z,1002.77
2017-12-12T10:49:42.669Z,1002.83
2017-12-12T10:50:41.866Z,1002.77
2017-12-12T10:51:41.905Z,1002.79
2017-12-12T10:52:42.018Z,1002.88
2017-12-12T10:53:42.197Z,1002.90
2017-12-12T10:54:42.454Z,1002.90
2017-12-12T10:55:42.593Z,1002.97
2017-12-12T10:56:42.673Z,1002.99
2017-12-12T10:57:41.769Z,1002.95
2017-12-12T10:58:41.763Z,1003.00
2017-12-12T10:59:42.387Z,1002.99
2017-12-12T11:01:07.522Z,1003.02
2017-12-12T11:02:07.743Z,1003.04
2017-12-12T11:03:08.003Z,1003.06
2017-12-12T11:04:08.330Z,1003.10
2017-12-12T11:05:07.675Z,1003.16
2017-12-12T11:06:08.137Z,1003.18
2017-12-12T11:07:08.336Z,1003.18
2017-12-12T11:08:08.384Z,1003.19
2017-12-12T11:09:07.623Z,1003.23
2017-12-12T11:10:08.094Z,1003.24
2017-12-12T11:11:08.323Z,1003.27
2017-12-12T11:12:07.491Z,1003.26
2017-12-12T11:13:07.755Z,1003.26
2017-12-12T11:14:08.184Z,1003.29
2017-12-12T11:15:08.396Z,1003.25
2017-12-12T11:16:07.924Z,1003.31
2017-12-12T11:17:08.292Z,1003.38
2017-12-12T11:18:07.537Z,1003.45
2017-12-12T11:19:07.583Z,1003.50
2017-12-12T11:20:07.843Z,1003.49
2017-12-12T11:21:08.340Z,1003.55
2017-12-12T11:22:07.624Z,1003.50
2017-12-12T11:23:07.836Z,1003.53
2017-12-12T11:24:08.064Z,1003.53
2017-12-12T11:25:34.730Z,1003.56
2017-12-12T11:26:59.903Z,1003.55
2017-12-12T11:28:00.943Z,1003.58
2017-12-12T11:29:00.131Z,1003.69
2017-12-12T11:30:24.513Z,1003.72
2017-12-12T11:31:24.603Z,1003.72
2017-12-12T11:32:24.764Z,1003.76
2017-12-12T11:33:24.877Z,1003.75
2017-12-12T11:34:25.086Z,1003.78
2017-12-12T11:35:25.311Z,1003.84
2017-12-12T11:36:25.558Z,1003.76
2017-12-12T11:37:24.773Z,1003.87
2017-12-12T11:38:25.067Z,1003.88
2017-12-12T11:39:25.273Z,1003.90
2017-12-12T11:40:25.464Z,1003.94
2017-12-12T11:41:48.649Z,1003.96
2017-12-12T11:42:48.945Z,1003.96
2017-12-12T11:43:49.195Z,1003.97
2017-12-12T11:44:49.366Z,1003.98
2017-12-12T11:46:14.317Z,1004.02
2017-12-12T11:47:14.817Z,1004.08
2017-12-12T11:48:15.173Z,1004.11
2017-12-12T11:49:14.348Z,1004.12
2017-12-12T11:50:14.515Z,1004.10
2017-12-12T11:51:14.813Z,1004.17
2017-12-12T11:52:14.923Z,1004.20
2017-12-12T11:53:16.383Z,1004.15
2017-12-12T11:54:14.595Z,1004.20
2017-12-12T11:56:03.371Z,1004.22
2017-12-12T11:57:03.778Z,1004.24
2017-12-12T11:58:04.028Z,1004.24
2017-12-12T11:59:04.320Z,1004.17
2017-12-12T12:00:04.452Z,1004.27
2017-12-12T12:01:03.787Z,1004.34
2017-12-12T12:02:04.175Z,1004.33
2017-12-12T12:03:05.376Z,1004.35
2017-12-12T12:04:03.668Z,1004.38
2017-12-12T12:05:03.857Z,1004.45
2017-12-12T12:06:27.983Z,1004.44
2017-12-12T12:07:28.128Z,1004.48
2017-12-12T12:08:28.250Z,1004.45
2017-12-12T12:09:29.418Z,1004.49
2017-12-12T12:10:28.633Z,1004.50
2017-12-12T12:11:28.963Z,1004.52
2017-12-12T12:12:28.244Z,1004.54
2017-12-12T12:13:28.650Z,1004.56
2017-12-12T12:14:28.876Z,1004.60
2017-12-12T12:15:28.262Z,1004.61
2017-12-12T12:16:29.054Z,1004.64
2017-12-12T12:17:28.985Z,1004.64
2017-12-12T12:18:28.475Z,1004.68
2017-12-12T12:19:30.054Z,1004.71
2017-12-12T12:20:35.670Z,1004.72
2017-12-12T12:22:07.432Z,1004.75
2017-12-12T12:23:04.930Z,1004.76
2017-12-12T12:24:04.325Z,1004.78
2017-12-12T12:25:04.585Z,1004.80
2017-12-12T12:26:03.832Z,1004.83
2017-12-12T12:27:04.354Z,1004.84
2017-12-12T12:28:04.649Z,1004.89
2017-12-12T12:29:03.824Z,1004.95
2017-12-12T12:30:04.939Z,1004.94
2017-12-12T12:31:04.056Z,1004.96
2017-12-12T12:32:04.217Z,1005.00
2017-12-12T12:33:03.478Z,1004.97
2017-12-12T12:34:03.642Z,1005.02
2017-12-12T12:35:04.456Z,1005.02
2017-12-12T12:36:03.778Z,1005.09
2017-12-12T12:37:03.968Z,1005.11
2017-12-12T12:38:04.192Z,1005.08
2017-12-12T12:39:04.238Z,1005.10
2017-12-12T12:40:04.489Z,1005.11